sensor_id;sensor_type;location;lat;lon;timestamp;temperature;humidity
4187;DHT22;2107;52.306;10.484;2022-10-17T00:00:35;12.90;99.90
4187;DHT22;2107;52.306;10.484;2022-10-17T00:03:02;12.90;99.90
4187;DHT22;2107;52.306;10.484;2022-10-17T00:05:29;13.00;99.90
4187;DHT22;2107;52.306;10.484;2022-10-17T00:07:57;12.90;99.90
4187;DHT22;2107;52.306;10.484;2022-10-17T00:10:24;12.90;99.90
4187;DHT22;2107;52.306;10.484;2022-10-17T00:12:51;13.00;99.90
4187;DHT22;2107;52.306;10.484;2022-10-17T00:15:19;12.90;99.90
4187;DHT22;2107;52.306;10.484;2022-10-17T00:17:46;12.90;99.90
4187;DHT22;2107;52.306;10.484;2022-10-17T00:20:14;12.90;99.90
4187;DHT22;2107;52.306;10.484;2022-10-17T00:22:41;13.00;99.90
4187;DHT22;2107;52.306;10.484;2022-10-17T00:25:11;13.00;99.90
4187;DHT22;2107;52.306;10.484;2022-10-17T00:27:39;13.10;99.90
4187;DHT22;2107;52.306;10.484;2022-10-17T00:30:10;13.10;99.90
4187;DHT22;2107;52.306;10.484;2022-10-17T00:32:38;13.10;99.90
4187;DHT22;2107;52.306;10.484;2022-10-17T00:35:05;13.10;99.90
4187;DHT22;2107;52.306;10.484;2022-10-17T00:37:32;13.00;99.90
4187;DHT22;2107;52.306;10.484;2022-10-17T00:39:59;13.00;99.90
4187;DHT22;2107;52.306;10.484;2022-10-17T00:42:28;13.10;99.90
4187;DHT22;2107;52.306;10.484;2022-10-17T00:45:18;13.10;99.90
4187;DHT22;2107;52.306;10.484;2022-10-17T00:47:49;13.10;99.90
4187;DHT22;2107;52.306;10.484;2022-10-17T00:50:17;13.10;99.90
4187;DHT22;2107;52.306;10.484;2022-10-17T00:52:46;13.10;99.90
4187;DHT22;2107;52.306;10.484;2022-10-17T00:55:20;13.20;99.90
4187;DHT22;2107;52.306;10.484;2022-10-17T00:57:48;13.30;99.90
4187;DHT22;2107;52.306;10.484;2022-10-17T01:00:17;13.20;99.90
4187;DHT22;2107;52.306;10.484;2022-10-17T01:02:44;13.10;99.90
4187;DHT22;2107;52.306;10.484;2022-10-17T01:05:11;13.20;99.90
4187;DHT22;2107;52.306;10.484;2022-10-17T01:07:39;13.20;99.90
4187;DHT22;2107;52.306;10.484;2022-10-17T01:10:07;13.30;99.90
4187;DHT22;2107;52.306;10.484;2022-10-17T01:12:51;13.20;99.90
4187;DHT22;2107;52.306;10.484;2022-10-17T01:15:32;13.10;99.90
4187;DHT22;2107;52.306;10.484;2022-10-17T01:18:14;13.10;99.90
4187;DHT22;2107;52.306;10.484;2022-10-17T01:21:20;13.00;99.90
4187;DHT22;2107;52.306;10.484;2022-10-17T01:24:07;12.90;99.90
4187;DHT22;2107;52.306;10.484;2022-10-17T01:26:52;12.80;99.90
4187;DHT22;2107;52.306;10.484;2022-10-17T01:29:46;12.90;99.90
4187;DHT22;2107;52.306;10.484;2022-10-17T01:32:22;12.80;99.90
4187;DHT22;2107;52.306;10.484;2022-10-17T01:34:56;12.80;99.90
4187;DHT22;2107;52.306;10.484;2022-10-17T01:37:28;12.80;99.90
4187;DHT22;2107;52.306;10.484;2022-10-17T01:40:03;12.70;99.90
4187;DHT22;2107;52.306;10.484;2022-10-17T01:42:37;12.70;99.90
4187;DHT22;2107;52.306;10.484;2022-10-17T01:45:11;12.60;99.90
4187;DHT22;2107;52.306;10.484;2022-10-17T01:47:41;12.60;99.90
4187;DHT22;2107;52.306;10.484;2022-10-17T01:50:12;12.60;99.90
4187;DHT22;2107;52.306;10.484;2022-10-17T01:52:42;12.60;99.90
4187;DHT22;2107;52.306;10.484;2022-10-17T01:55:14;12.60;99.90
4187;DHT22;2107;52.306;10.484;2022-10-17T01:57:45;12.70;99.90
4187;DHT22;2107;52.306;10.484;2022-10-17T02:00:17;12.70;99.90
4187;DHT22;2107;52.306;10.484;2022-10-17T02:02:47;12.60;99.90
4187;DHT22;2107;52.306;10.484;2022-10-17T02:05:16;12.50;99.90
4187;DHT22;2107;52.306;10.484;2022-10-17T02:07:44;12.50;99.90
4187;DHT22;2107;52.306;10.484;2022-10-17T02:10:15;12.50;99.90
4187;DHT22;2107;52.306;10.484;2022-10-17T02:12:48;12.60;99.90
4187;DHT22;2107;52.306;10.484;2022-10-17T02:15:45;12.60;99.90
4187;DHT22;2107;52.306;10.484;2022-10-17T02:18:29;12.50;99.90
4187;DHT22;2107;52.306;10.484;2022-10-17T02:21:07;12.50;99.90
4187;DHT22;2107;52.306;10.484;2022-10-17T02:23:37;12.50;99.90
4187;DHT22;2107;52.306;10.484;2022-10-17T02:26:09;12.50;99.90
4187;DHT22;2107;52.306;10.484;2022-10-17T02:28:40;12.40;99.90
4187;DHT22;2107;52.306;10.484;2022-10-17T02:31:13;12.40;99.90
4187;DHT22;2107;52.306;10.484;2022-10-17T02:33:45;12.40;99.90
4187;DHT22;2107;52.306;10.484;2022-10-17T02:36:17;12.40;99.90
4187;DHT22;2107;52.306;10.484;2022-10-17T02:38:45;12.40;99.90
4187;DHT22;2107;52.306;10.484;2022-10-17T02:41:15;12.60;99.90
4187;DHT22;2107;52.306;10.484;2022-10-17T02:43:43;12.90;99.90
4187;DHT22;2107;52.306;10.484;2022-10-17T02:46:13;12.80;99.90
4187;DHT22;2107;52.306;10.484;2022-10-17T02:48:50;12.80;99.90
4187;DHT22;2107;52.306;10.484;2022-10-17T02:51:23;12.90;99.90
4187;DHT22;2107;52.306;10.484;2022-10-17T02:53:54;12.90;99.90
4187;DHT22;2107;52.306;10.484;2022-10-17T02:56:26;13.00;99.90
4187;DHT22;2107;52.306;10.484;2022-10-17T02:58:57;13.00;99.90
4187;DHT22;2107;52.306;10.484;2022-10-17T03:01:25;13.00;99.90
4187;DHT22;2107;52.306;10.484;2022-10-17T03:04:05;12.90;99.90
4187;DHT22;2107;52.306;10.484;2022-10-17T03:06:32;12.90;99.90
4187;DHT22;2107;52.306;10.484;2022-10-17T03:08:59;13.00;99.90
4187;DHT22;2107;52.306;10.484;2022-10-17T03:11:26;13.10;99.90
4187;DHT22;2107;52.306;10.484;2022-10-17T03:13:53;13.10;99.90
4187;DHT22;2107;52.306;10.484;2022-10-17T03:16:19;13.10;99.90
4187;DHT22;2107;52.306;10.484;2022-10-17T03:18:46;13.20;99.90
4187;DHT22;2107;52.306;10.484;2022-10-17T03:21:15;13.10;99.90
4187;DHT22;2107;52.306;10.484;2022-10-17T03:23:41;13.30;99.90
4187;DHT22;2107;52.306;10.484;2022-10-17T03:26:09;13.30;99.90
4187;DHT22;2107;52.306;10.484;2022-10-17T03:28:36;13.30;99.90
4187;DHT22;2107;52.306;10.484;2022-10-17T03:31:06;13.30;99.90
4187;DHT22;2107;52.306;10.484;2022-10-17T03:33:33;13.30;99.90
4187;DHT22;2107;52.306;10.484;2022-10-17T03:36:04;13.20;99.90
4187;DHT22;2107;52.306;10.484;2022-10-17T03:38:33;13.30;99.90
4187;DHT22;2107;52.306;10.484;2022-10-17T03:41:00;13.20;99.90
4187;DHT22;2107;52.306;10.484;2022-10-17T03:43:27;13.20;99.90
4187;DHT22;2107;52.306;10.484;2022-10-17T03:45:55;13.30;99.90
4187;DHT22;2107;52.306;10.484;2022-10-17T03:48:22;13.40;99.90
4187;DHT22;2107;52.306;10.484;2022-10-17T03:50:49;13.40;99.90
4187;DHT22;2107;52.306;10.484;2022-10-17T03:53:16;13.40;99.90
4187;DHT22;2107;52.306;10.484;2022-10-17T03:55:44;13.40;99.90
4187;DHT22;2107;52.306;10.484;2022-10-17T03:58:11;13.50;99.90
4187;DHT22;2107;52.306;10.484;2022-10-17T04:00:38;13.50;99.90
4187;DHT22;2107;52.306;10.484;2022-10-17T04:03:04;13.40;99.90
4187;DHT22;2107;52.306;10.484;2022-10-17T04:05:31;13.40;99.90
4187;DHT22;2107;52.306;10.484;2022-10-17T04:07:58;13.30;99.90
4187;DHT22;2107;52.306;10.484;2022-10-17T04:10:25;13.30;99.90
4187;DHT22;2107;52.306;10.484;2022-10-17T04:12:53;13.30;99.90
4187;DHT22;2107;52.306;10.484;2022-10-17T04:15:20;13.30;99.90
4187;DHT22;2107;52.306;10.484;2022-10-17T04:17:47;13.20;99.90
4187;DHT22;2107;52.306;10.484;2022-10-17T04:20:14;13.30;99.90
4187;DHT22;2107;52.306;10.484;2022-10-17T04:22:41;13.50;99.90
4187;DHT22;2107;52.306;10.484;2022-10-17T04:25:08;13.50;99.90
4187;DHT22;2107;52.306;10.484;2022-10-17T04:27:35;13.40;99.90
4187;DHT22;2107;52.306;10.484;2022-10-17T04:30:04;13.60;99.90
4187;DHT22;2107;52.306;10.484;2022-10-17T04:32:31;13.60;99.90
4187;DHT22;2107;52.306;10.484;2022-10-17T04:35:01;13.50;99.90
4187;DHT22;2107;52.306;10.484;2022-10-17T04:37:28;13.50;99.90
4187;DHT22;2107;52.306;10.484;2022-10-17T04:39:55;13.40;99.90
4187;DHT22;2107;52.306;10.484;2022-10-17T04:42:22;13.50;99.90
4187;DHT22;2107;52.306;10.484;2022-10-17T04:44:49;13.50;99.90
4187;DHT22;2107;52.306;10.484;2022-10-17T04:47:17;13.50;99.90
4187;DHT22;2107;52.306;10.484;2022-10-17T04:49:44;13.40;99.90
4187;DHT22;2107;52.306;10.484;2022-10-17T04:52:11;13.40;99.90
4187;DHT22;2107;52.306;10.484;2022-10-17T04:54:38;13.50;99.90
4187;DHT22;2107;52.306;10.484;2022-10-17T04:57:05;13.50;99.90
4187;DHT22;2107;52.306;10.484;2022-10-17T04:59:32;13.50;99.90
4187;DHT22;2107;52.306;10.484;2022-10-17T05:01:58;13.40;99.90
4187;DHT22;2107;52.306;10.484;2022-10-17T05:04:29;13.50;99.90
4187;DHT22;2107;52.306;10.484;2022-10-17T05:06:56;13.30;99.90
4187;DHT22;2107;52.306;10.484;2022-10-17T05:09:23;13.40;99.90
4187;DHT22;2107;52.306;10.484;2022-10-17T05:11:50;13.40;99.90
4187;DHT22;2107;52.306;10.484;2022-10-17T05:14:17;13.40;99.90
4187;DHT22;2107;52.306;10.484;2022-10-17T05:16:44;13.40;99.90
4187;DHT22;2107;52.306;10.484;2022-10-17T05:19:11;13.40;99.90
4187;DHT22;2107;52.306;10.484;2022-10-17T05:21:39;13.40;99.90
4187;DHT22;2107;52.306;10.484;2022-10-17T05:24:07;13.40;99.90
4187;DHT22;2107;52.306;10.484;2022-10-17T05:26:34;13.30;99.90
4187;DHT22;2107;52.306;10.484;2022-10-17T05:29:01;13.40;99.90
4187;DHT22;2107;52.306;10.484;2022-10-17T05:31:29;13.40;99.90
4187;DHT22;2107;52.306;10.484;2022-10-17T05:33:59;13.40;99.90
4187;DHT22;2107;52.306;10.484;2022-10-17T05:36:26;13.30;99.90
4187;DHT22;2107;52.306;10.484;2022-10-17T05:38:54;13.30;99.90
4187;DHT22;2107;52.306;10.484;2022-10-17T05:41:21;13.30;99.90
4187;DHT22;2107;52.306;10.484;2022-10-17T05:43:48;13.30;99.90
4187;DHT22;2107;52.306;10.484;2022-10-17T05:46:15;13.20;99.90
4187;DHT22;2107;52.306;10.484;2022-10-17T05:48:42;13.20;99.90
4187;DHT22;2107;52.306;10.484;2022-10-17T05:51:09;13.20;99.90
4187;DHT22;2107;52.306;10.484;2022-10-17T05:53:38;13.20;99.90
4187;DHT22;2107;52.306;10.484;2022-10-17T05:56:08;13.10;99.90
4187;DHT22;2107;52.306;10.484;2022-10-17T05:58:39;13.10;99.90
4187;DHT22;2107;52.306;10.484;2022-10-17T06:01:07;13.20;99.90
4187;DHT22;2107;52.306;10.484;2022-10-17T06:03:34;13.20;99.90
4187;DHT22;2107;52.306;10.484;2022-10-17T06:06:05;13.10;99.90
4187;DHT22;2107;52.306;10.484;2022-10-17T06:08:33;13.20;99.90
4187;DHT22;2107;52.306;10.484;2022-10-17T06:11:00;13.20;99.90
4187;DHT22;2107;52.306;10.484;2022-10-17T06:13:28;13.20;99.90
4187;DHT22;2107;52.306;10.484;2022-10-17T06:15:55;13.30;99.90
4187;DHT22;2107;52.306;10.484;2022-10-17T06:18:22;13.30;99.90
4187;DHT22;2107;52.306;10.484;2022-10-17T06:20:49;13.40;99.90
4187;DHT22;2107;52.306;10.484;2022-10-17T06:23:16;13.40;99.90
4187;DHT22;2107;52.306;10.484;2022-10-17T06:25:43;13.60;99.90
4187;DHT22;2107;52.306;10.484;2022-10-17T06:28:10;13.60;99.90
4187;DHT22;2107;52.306;10.484;2022-10-17T06:30:39;13.70;99.90
4187;DHT22;2107;52.306;10.484;2022-10-17T06:33:06;13.70;99.90
4187;DHT22;2107;52.306;10.484;2022-10-17T06:35:33;13.70;99.90
4187;DHT22;2107;52.306;10.484;2022-10-17T06:38:00;13.80;99.90
4187;DHT22;2107;52.306;10.484;2022-10-17T06:40:27;13.70;99.90
4187;DHT22;2107;52.306;10.484;2022-10-17T06:42:55;13.80;99.90
4187;DHT22;2107;52.306;10.484;2022-10-17T06:45:22;13.80;99.90
4187;DHT22;2107;52.306;10.484;2022-10-17T06:47:50;13.80;99.90
4187;DHT22;2107;52.306;10.484;2022-10-17T06:50:17;13.80;99.90
4187;DHT22;2107;52.306;10.484;2022-10-17T06:52:44;13.90;99.90
4187;DHT22;2107;52.306;10.484;2022-10-17T06:55:11;13.90;99.90
4187;DHT22;2107;52.306;10.484;2022-10-17T06:57:38;14.00;99.90
4187;DHT22;2107;52.306;10.484;2022-10-17T07:00:06;14.10;99.90
4187;DHT22;2107;52.306;10.484;2022-10-17T07:02:33;14.20;99.90
4187;DHT22;2107;52.306;10.484;2022-10-17T07:05:01;14.30;99.90
4187;DHT22;2107;52.306;10.484;2022-10-17T07:07:29;14.50;99.90
4187;DHT22;2107;52.306;10.484;2022-10-17T07:09:57;14.60;99.90
4187;DHT22;2107;52.306;10.484;2022-10-17T07:12:24;14.80;99.90
4187;DHT22;2107;52.306;10.484;2022-10-17T07:14:51;14.90;99.90
4187;DHT22;2107;52.306;10.484;2022-10-17T07:17:18;15.10;99.90
4187;DHT22;2107;52.306;10.484;2022-10-17T07:19:45;15.40;99.90
4187;DHT22;2107;52.306;10.484;2022-10-17T07:22:13;15.50;99.90
4187;DHT22;2107;52.306;10.484;2022-10-17T07:24:40;15.60;99.90
4187;DHT22;2107;52.306;10.484;2022-10-17T07:27:07;15.80;99.90
4187;DHT22;2107;52.306;10.484;2022-10-17T07:29:35;16.10;99.90
4187;DHT22;2107;52.306;10.484;2022-10-17T07:32:02;16.20;99.90
4187;DHT22;2107;52.306;10.484;2022-10-17T07:34:33;16.20;99.90
4187;DHT22;2107;52.306;10.484;2022-10-17T07:37:00;16.20;99.90
4187;DHT22;2107;52.306;10.484;2022-10-17T07:39:28;16.10;99.90
4187;DHT22;2107;52.306;10.484;2022-10-17T07:41:55;16.10;99.90
4187;DHT22;2107;52.306;10.484;2022-10-17T07:44:23;16.00;99.90
4187;DHT22;2107;52.306;10.484;2022-10-17T07:46:50;16.00;99.90
4187;DHT22;2107;52.306;10.484;2022-10-17T07:49:17;16.20;99.90
4187;DHT22;2107;52.306;10.484;2022-10-17T07:51:44;16.10;99.90
4187;DHT22;2107;52.306;10.484;2022-10-17T07:54:10;16.10;99.90
4187;DHT22;2107;52.306;10.484;2022-10-17T07:56:39;16.00;99.90
4187;DHT22;2107;52.306;10.484;2022-10-17T07:59:06;16.10;99.90
4187;DHT22;2107;52.306;10.484;2022-10-17T08:01:33;16.30;99.90
4187;DHT22;2107;52.306;10.484;2022-10-17T08:04:00;16.30;99.90
4187;DHT22;2107;52.306;10.484;2022-10-17T08:06:27;16.60;99.90
4187;DHT22;2107;52.306;10.484;2022-10-17T08:08:54;16.70;99.90
4187;DHT22;2107;52.306;10.484;2022-10-17T08:11:23;17.10;99.90
4187;DHT22;2107;52.306;10.484;2022-10-17T08:13:52;17.50;99.90
4187;DHT22;2107;52.306;10.484;2022-10-17T08:16:19;17.40;99.90
4187;DHT22;2107;52.306;10.484;2022-10-17T08:18:46;17.30;99.90
4187;DHT22;2107;52.306;10.484;2022-10-17T08:21:13;17.30;99.90
4187;DHT22;2107;52.306;10.484;2022-10-17T08:23:40;17.40;99.90
4187;DHT22;2107;52.306;10.484;2022-10-17T08:26:07;17.60;99.90
4187;DHT22;2107;52.306;10.484;2022-10-17T08:28:36;17.80;99.90
4187;DHT22;2107;52.306;10.484;2022-10-17T08:31:06;17.80;99.90
4187;DHT22;2107;52.306;10.484;2022-10-17T08:33:33;17.80;99.90
4187;DHT22;2107;52.306;10.484;2022-10-17T08:36:00;18.30;99.90
4187;DHT22;2107;52.306;10.484;2022-10-17T08:38:28;18.50;99.90
4187;DHT22;2107;52.306;10.484;2022-10-17T08:40:59;18.60;99.90
4187;DHT22;2107;52.306;10.484;2022-10-17T08:43:40;18.60;99.90
4187;DHT22;2107;52.306;10.484;2022-10-17T08:46:11;18.80;99.90
4187;DHT22;2107;52.306;10.484;2022-10-17T08:48:40;19.10;99.90
4187;DHT22;2107;52.306;10.484;2022-10-17T08:51:12;19.50;99.90
4187;DHT22;2107;52.306;10.484;2022-10-17T08:53:45;19.70;99.90
4187;DHT22;2107;52.306;10.484;2022-10-17T08:56:17;19.80;99.90
4187;DHT22;2107;52.306;10.484;2022-10-17T08:58:45;20.10;99.90
4187;DHT22;2107;52.306;10.484;2022-10-17T09:01:30;20.20;99.90
4187;DHT22;2107;52.306;10.484;2022-10-17T09:04:16;20.20;99.90
4187;DHT22;2107;52.306;10.484;2022-10-17T09:06:48;20.40;99.90
4187;DHT22;2107;52.306;10.484;2022-10-17T09:09:27;20.80;99.90
4187;DHT22;2107;52.306;10.484;2022-10-17T09:12:11;20.70;99.90
4187;DHT22;2107;52.306;10.484;2022-10-17T09:15:02;20.80;99.90
4187;DHT22;2107;52.306;10.484;2022-10-17T09:17:44;20.80;99.90
4187;DHT22;2107;52.306;10.484;2022-10-17T09:20:18;21.40;99.90
4187;DHT22;2107;52.306;10.484;2022-10-17T09:22:50;21.40;99.90
4187;DHT22;2107;52.306;10.484;2022-10-17T09:25:19;21.40;99.90
4187;DHT22;2107;52.306;10.484;2022-10-17T09:27:48;21.20;99.90
4187;DHT22;2107;52.306;10.484;2022-10-17T09:30:26;21.50;99.90
4187;DHT22;2107;52.306;10.484;2022-10-17T09:32:56;21.80;99.90
4187;DHT22;2107;52.306;10.484;2022-10-17T09:35:23;21.60;99.90
4187;DHT22;2107;52.306;10.484;2022-10-17T09:37:51;21.60;99.90
4187;DHT22;2107;52.306;10.484;2022-10-17T09:40:21;21.60;99.90
4187;DHT22;2107;52.306;10.484;2022-10-17T09:42:49;21.60;99.90
4187;DHT22;2107;52.306;10.484;2022-10-17T09:45:19;21.60;99.90
4187;DHT22;2107;52.306;10.484;2022-10-17T09:47:56;21.60;99.90
4187;DHT22;2107;52.306;10.484;2022-10-17T09:50:26;21.70;99.90
4187;DHT22;2107;52.306;10.484;2022-10-17T09:52:54;21.90;99.90
4187;DHT22;2107;52.306;10.484;2022-10-17T09:55:28;21.90;99.90
4187;DHT22;2107;52.306;10.484;2022-10-17T09:57:58;21.80;99.90
4187;DHT22;2107;52.306;10.484;2022-10-17T10:00:27;21.70;99.90
4187;DHT22;2107;52.306;10.484;2022-10-17T10:03:14;21.60;99.90
4187;DHT22;2107;52.306;10.484;2022-10-17T10:05:54;21.50;99.90
4187;DHT22;2107;52.306;10.484;2022-10-17T10:08:26;21.50;99.90
4187;DHT22;2107;52.306;10.484;2022-10-17T10:10:57;21.60;99.90
4187;DHT22;2107;52.306;10.484;2022-10-17T10:13:26;21.60;99.90
4187;DHT22;2107;52.306;10.484;2022-10-17T10:15:53;21.70;99.90
4187;DHT22;2107;52.306;10.484;2022-10-17T10:18:39;21.70;99.90
4187;DHT22;2107;52.306;10.484;2022-10-17T10:21:09;21.60;99.90
4187;DHT22;2107;52.306;10.484;2022-10-17T10:23:37;21.60;99.90
4187;DHT22;2107;52.306;10.484;2022-10-17T10:26:21;21.60;99.90
4187;DHT22;2107;52.306;10.484;2022-10-17T10:28:57;21.70;99.90
4187;DHT22;2107;52.306;10.484;2022-10-17T10:31:28;21.80;99.90
4187;DHT22;2107;52.306;10.484;2022-10-17T10:33:59;21.60;99.90
4187;DHT22;2107;52.306;10.484;2022-10-17T10:36:42;21.60;99.90
4187;DHT22;2107;52.306;10.484;2022-10-17T10:39:25;21.50;99.90
4187;DHT22;2107;52.306;10.484;2022-10-17T10:41:53;21.50;99.90
4187;DHT22;2107;52.306;10.484;2022-10-17T10:44:23;21.60;99.90
4187;DHT22;2107;52.306;10.484;2022-10-17T10:47:15;21.70;99.90
4187;DHT22;2107;52.306;10.484;2022-10-17T10:49:44;21.80;99.90
4187;DHT22;2107;52.306;10.484;2022-10-17T10:52:18;21.90;99.90
4187;DHT22;2107;52.306;10.484;2022-10-17T10:54:54;21.90;99.90
4187;DHT22;2107;52.306;10.484;2022-10-17T10:57:25;22.00;99.90
4187;DHT22;2107;52.306;10.484;2022-10-17T10:59:59;22.00;99.90
4187;DHT22;2107;52.306;10.484;2022-10-17T11:02:34;22.10;99.90
4187;DHT22;2107;52.306;10.484;2022-10-17T11:05:10;22.10;99.90
4187;DHT22;2107;52.306;10.484;2022-10-17T11:07:44;22.10;99.90
4187;DHT22;2107;52.306;10.484;2022-10-17T11:10:15;22.20;99.90
4187;DHT22;2107;52.306;10.484;2022-10-17T11:12:49;22.30;99.90
4187;DHT22;2107;52.306;10.484;2022-10-17T11:15:20;22.40;99.90
4187;DHT22;2107;52.306;10.484;2022-10-17T11:17:54;22.30;99.90
4187;DHT22;2107;52.306;10.484;2022-10-17T11:20:31;22.30;99.90
4187;DHT22;2107;52.306;10.484;2022-10-17T11:23:08;22.40;99.90
4187;DHT22;2107;52.306;10.484;2022-10-17T11:25:37;22.70;99.90
4187;DHT22;2107;52.306;10.484;2022-10-17T11:28:12;22.70;99.90
4187;DHT22;2107;52.306;10.484;2022-10-17T11:30:45;22.70;99.90
4187;DHT22;2107;52.306;10.484;2022-10-17T11:33:16;22.70;99.90
4187;DHT22;2107;52.306;10.484;2022-10-17T11:35:49;22.70;99.90
4187;DHT22;2107;52.306;10.484;2022-10-17T11:38:21;22.90;99.90
4187;DHT22;2107;52.306;10.484;2022-10-17T11:40:52;23.10;99.90
4187;DHT22;2107;52.306;10.484;2022-10-17T11:43:26;23.40;99.90
4187;DHT22;2107;52.306;10.484;2022-10-17T11:45:57;23.70;99.90
4187;DHT22;2107;52.306;10.484;2022-10-17T11:48:29;24.00;99.90
4187;DHT22;2107;52.306;10.484;2022-10-17T11:51:09;24.10;99.90
4187;DHT22;2107;52.306;10.484;2022-10-17T11:53:45;24.10;99.90
4187;DHT22;2107;52.306;10.484;2022-10-17T11:56:19;24.50;99.90
4187;DHT22;2107;52.306;10.484;2022-10-17T11:58:51;24.40;99.90
4187;DHT22;2107;52.306;10.484;2022-10-17T12:01:26;24.40;99.90
4187;DHT22;2107;52.306;10.484;2022-10-17T12:04:16;24.80;99.90
4187;DHT22;2107;52.306;10.484;2022-10-17T12:06:56;24.70;99.90
4187;DHT22;2107;52.306;10.484;2022-10-17T12:09:31;24.40;99.90
4187;DHT22;2107;52.306;10.484;2022-10-17T12:12:02;24.40;99.90
4187;DHT22;2107;52.306;10.484;2022-10-17T12:14:40;24.00;99.90
4187;DHT22;2107;52.306;10.484;2022-10-17T12:17:30;24.30;99.90
4187;DHT22;2107;52.306;10.484;2022-10-17T12:20:31;24.30;99.90
4187;DHT22;2107;52.306;10.484;2022-10-17T12:23:25;24.40;99.90
4187;DHT22;2107;52.306;10.484;2022-10-17T12:25:54;24.30;99.90
4187;DHT22;2107;52.306;10.484;2022-10-17T12:28:28;24.30;99.90
4187;DHT22;2107;52.306;10.484;2022-10-17T12:30:58;24.40;99.90
4187;DHT22;2107;52.306;10.484;2022-10-17T12:33:31;24.40;99.90
4187;DHT22;2107;52.306;10.484;2022-10-17T12:42:48;24.20;99.90
4187;DHT22;2107;52.306;10.484;2022-10-17T12:45:44;24.30;99.90
4187;DHT22;2107;52.306;10.484;2022-10-17T12:48:12;24.30;99.90
4187;DHT22;2107;52.306;10.484;2022-10-17T12:51:02;24.40;99.90
4187;DHT22;2107;52.306;10.484;2022-10-17T12:53:38;24.30;99.90
4187;DHT22;2107;52.306;10.484;2022-10-17T12:56:07;24.10;99.90
4187;DHT22;2107;52.306;10.484;2022-10-17T12:58:36;24.10;99.90
4187;DHT22;2107;52.306;10.484;2022-10-17T13:01:04;23.90;99.90
4187;DHT22;2107;52.306;10.484;2022-10-17T13:03:41;23.80;99.90
4187;DHT22;2107;52.306;10.484;2022-10-17T13:06:16;24.10;99.90
4187;DHT22;2107;52.306;10.484;2022-10-17T13:08:47;23.90;99.90
4187;DHT22;2107;52.306;10.484;2022-10-17T13:11:15;24.00;99.90
4187;DHT22;2107;52.306;10.484;2022-10-17T13:13:51;23.90;99.90
4187;DHT22;2107;52.306;10.484;2022-10-17T13:16:30;23.90;99.90
4187;DHT22;2107;52.306;10.484;2022-10-17T13:18:58;23.80;99.90
4187;DHT22;2107;52.306;10.484;2022-10-17T13:21:25;23.80;99.90
4187;DHT22;2107;52.306;10.484;2022-10-17T13:23:53;23.70;99.90
4187;DHT22;2107;52.306;10.484;2022-10-17T13:26:21;23.80;99.90
4187;DHT22;2107;52.306;10.484;2022-10-17T13:29:02;23.80;99.90
4187;DHT22;2107;52.306;10.484;2022-10-17T13:31:31;23.80;99.90
4187;DHT22;2107;52.306;10.484;2022-10-17T13:34:00;23.80;99.90
4187;DHT22;2107;52.306;10.484;2022-10-17T13:36:28;23.80;99.90
4187;DHT22;2107;52.306;10.484;2022-10-17T13:38:57;23.70;99.90
4187;DHT22;2107;52.306;10.484;2022-10-17T13:41:27;23.70;99.90
4187;DHT22;2107;52.306;10.484;2022-10-17T13:43:56;23.70;99.90
4187;DHT22;2107;52.306;10.484;2022-10-17T13:46:28;23.70;99.90
4187;DHT22;2107;52.306;10.484;2022-10-17T13:48:56;23.60;99.90
4187;DHT22;2107;52.306;10.484;2022-10-17T13:51:25;23.70;99.90
4187;DHT22;2107;52.306;10.484;2022-10-17T13:53:52;23.60;99.90
4187;DHT22;2107;52.306;10.484;2022-10-17T13:56:22;23.70;99.90
4187;DHT22;2107;52.306;10.484;2022-10-17T13:58:51;23.70;99.90
4187;DHT22;2107;52.306;10.484;2022-10-17T14:01:21;23.70;99.90
4187;DHT22;2107;52.306;10.484;2022-10-17T14:03:50;24.20;99.90
4187;DHT22;2107;52.306;10.484;2022-10-17T14:06:19;24.80;99.90
4187;DHT22;2107;52.306;10.484;2022-10-17T14:08:50;25.10;99.90
4187;DHT22;2107;52.306;10.484;2022-10-17T14:11:31;25.40;99.90
4187;DHT22;2107;52.306;10.484;2022-10-17T14:14:00;25.60;99.90
4187;DHT22;2107;52.306;10.484;2022-10-17T14:16:34;25.40;99.90
4187;DHT22;2107;52.306;10.484;2022-10-17T14:19:04;25.10;99.90
4187;DHT22;2107;52.306;10.484;2022-10-17T14:21:31;24.80;99.90
4187;DHT22;2107;52.306;10.484;2022-10-17T14:24:14;24.60;99.90
4187;DHT22;2107;52.306;10.484;2022-10-17T14:26:49;24.60;99.90
4187;DHT22;2107;52.306;10.484;2022-10-17T14:29:24;24.50;99.90
4187;DHT22;2107;52.306;10.484;2022-10-17T14:31:58;24.40;99.90
4187;DHT22;2107;52.306;10.484;2022-10-17T14:34:30;24.60;99.90
4187;DHT22;2107;52.306;10.484;2022-10-17T14:36:58;24.50;99.90
4187;DHT22;2107;52.306;10.484;2022-10-17T14:39:26;24.50;99.90
4187;DHT22;2107;52.306;10.484;2022-10-17T14:41:53;24.40;99.90
4187;DHT22;2107;52.306;10.484;2022-10-17T14:44:27;24.30;99.90
4187;DHT22;2107;52.306;10.484;2022-10-17T14:46:57;24.10;99.90
4187;DHT22;2107;52.306;10.484;2022-10-17T14:49:32;24.20;99.90
4187;DHT22;2107;52.306;10.484;2022-10-17T14:52:27;24.00;99.90
4187;DHT22;2107;52.306;10.484;2022-10-17T14:54:55;23.80;99.90
4187;DHT22;2107;52.306;10.484;2022-10-17T14:57:27;23.70;99.90
4187;DHT22;2107;52.306;10.484;2022-10-17T14:59:55;23.60;99.90
4187;DHT22;2107;52.306;10.484;2022-10-17T15:02:23;23.60;99.90
4187;DHT22;2107;52.306;10.484;2022-10-17T15:04:51;23.50;99.90
4187;DHT22;2107;52.306;10.484;2022-10-17T15:07:19;23.60;99.90
4187;DHT22;2107;52.306;10.484;2022-10-17T15:09:48;23.70;99.90
4187;DHT22;2107;52.306;10.484;2022-10-17T15:12:17;23.50;99.90
4187;DHT22;2107;52.306;10.484;2022-10-17T15:14:45;23.40;99.90
4187;DHT22;2107;52.306;10.484;2022-10-17T15:17:14;23.40;99.90
4187;DHT22;2107;52.306;10.484;2022-10-17T15:19:43;23.20;99.90
4187;DHT22;2107;52.306;10.484;2022-10-17T15:22:11;23.00;99.90
4187;DHT22;2107;52.306;10.484;2022-10-17T15:24:39;22.90;99.90
4187;DHT22;2107;52.306;10.484;2022-10-17T15:27:13;22.60;99.90
4187;DHT22;2107;52.306;10.484;2022-10-17T15:29:40;22.60;99.90
4187;DHT22;2107;52.306;10.484;2022-10-17T15:32:07;22.60;99.90
4187;DHT22;2107;52.306;10.484;2022-10-17T15:34:34;22.50;99.90
4187;DHT22;2107;52.306;10.484;2022-10-17T15:37:03;22.50;99.90
4187;DHT22;2107;52.306;10.484;2022-10-17T15:39:31;22.50;99.90
4187;DHT22;2107;52.306;10.484;2022-10-17T15:41:58;22.30;99.90
4187;DHT22;2107;52.306;10.484;2022-10-17T15:44:25;22.40;99.90
4187;DHT22;2107;52.306;10.484;2022-10-17T15:46:53;22.40;99.90
4187;DHT22;2107;52.306;10.484;2022-10-17T15:49:21;22.40;99.90
4187;DHT22;2107;52.306;10.484;2022-10-17T15:51:48;22.30;99.90
4187;DHT22;2107;52.306;10.484;2022-10-17T15:54:15;22.30;99.90
4187;DHT22;2107;52.306;10.484;2022-10-17T15:56:47;22.20;99.90
4187;DHT22;2107;52.306;10.484;2022-10-17T15:59:20;22.20;99.90
4187;DHT22;2107;52.306;10.484;2022-10-17T16:01:47;22.10;99.90
4187;DHT22;2107;52.306;10.484;2022-10-17T16:04:14;22.10;99.90
4187;DHT22;2107;52.306;10.484;2022-10-17T16:06:42;22.00;99.90
4187;DHT22;2107;52.306;10.484;2022-10-17T16:09:10;22.00;99.90
4187;DHT22;2107;52.306;10.484;2022-10-17T16:11:39;22.00;99.90
4187;DHT22;2107;52.306;10.484;2022-10-17T16:14:11;21.90;99.90